createdAt,value
2023-01-29T00:00:02.558Z,85.01
2023-01-29T00:01:02.546Z,85.18
2023-01-29T00:02:02.737Z,85.19
2023-01-29T00:03:02.588Z,85.14
2023-01-29T00:04:02.519Z,85.13
2023-01-29T00:05:16.722Z,84.62
2023-01-29T00:06:02.501Z,84.71
2023-01-29T00:07:02.543Z,84.80
2023-01-29T00:08:02.468Z,84.61
2023-01-29T00:09:02.459Z,84.61
2023-01-29T00:10:02.456Z,84.79
2023-01-29T00:11:02.441Z,84.95
2023-01-29T00:12:02.434Z,85.16
2023-01-29T00:13:02.418Z,85.27
2023-01-29T00:14:02.422Z,85.20
2023-01-29T00:15:02.441Z,85.05
2023-01-29T00:16:02.406Z,85.12
2023-01-29T00:17:02.418Z,85.21
2023-01-29T00:18:02.367Z,85.08
2023-01-29T00:19:02.383Z,85.00
2023-01-29T00:20:02.468Z,84.96
2023-01-29T00:21:02.365Z,84.95
2023-01-29T00:22:02.359Z,85.07
2023-01-29T00:23:02.355Z,85.19
2023-01-29T00:24:02.366Z,85.24
2023-01-29T00:25:02.330Z,85.15
2023-01-29T00:26:02.295Z,85.13
2023-01-29T00:27:02.373Z,85.22
2023-01-29T00:28:02.298Z,85.04
2023-01-29T00:29:02.316Z,85.07
2023-01-29T00:30:02.320Z,85.13
2023-01-29T00:31:02.375Z,85.11
2023-01-29T00:32:02.342Z,85.04
2023-01-29T00:33:02.257Z,85.02
2023-01-29T00:34:02.232Z,85.02
2023-01-29T00:35:02.235Z,85.12
2023-01-29T00:36:02.200Z,85.07
2023-01-29T00:37:02.231Z,84.85
2023-01-29T00:38:02.196Z,84.83
2023-01-29T00:39:02.166Z,84.98
2023-01-29T00:40:02.201Z,85.05
2023-01-29T00:41:02.176Z,85.00
2023-01-29T00:42:02.188Z,84.99
2023-01-29T00:43:02.146Z,84.95
2023-01-29T00:44:02.152Z,84.81
2023-01-29T00:45:02.184Z,84.63
2023-01-29T00:46:02.117Z,84.31
2023-01-29T00:47:02.105Z,84.15
2023-01-29T00:48:02.107Z,83.91
2023-01-29T00:49:02.102Z,83.80
2023-01-29T00:50:02.103Z,83.84
2023-01-29T00:51:02.068Z,83.61
2023-01-29T00:52:02.064Z,83.68
2023-01-29T00:53:02.047Z,83.67
2023-01-29T00:54:02.040Z,83.60
2023-01-29T00:55:02.038Z,83.85
2023-01-29T00:56:02.063Z,83.86
2023-01-29T00:57:02.051Z,83.85
2023-01-29T00:58:02.021Z,83.96
2023-01-29T00:59:01.997Z,84.00
2023-01-29T01:00:01.999Z,84.10
2023-01-29T01:01:01.986Z,84.15
2023-01-29T01:02:02.006Z,84.02
2023-01-29T01:03:01.966Z,84.11
2023-01-29T01:04:01.953Z,84.14
2023-01-29T01:05:01.944Z,84.04
2023-01-29T01:06:01.942Z,83.95
2023-01-29T01:07:01.935Z,83.98
2023-01-29T01:08:01.939Z,84.12
2023-01-29T01:09:01.935Z,84.30
2023-01-29T01:10:01.919Z,84.43
2023-01-29T01:11:01.906Z,84.43
2023-01-29T01:12:01.863Z,84.54
2023-01-29T01:13:01.889Z,84.71
2023-01-29T01:14:01.847Z,84.76
2023-01-29T01:15:01.843Z,84.67
2023-01-29T01:16:01.874Z,84.48
2023-01-29T01:17:01.816Z,84.24
2023-01-29T01:18:01.829Z,84.23
2023-01-29T01:19:01.820Z,84.23
2023-01-29T01:20:01.806Z,84.20
2023-01-29T01:21:01.791Z,84.15
2023-01-29T01:22:01.794Z,83.96
2023-01-29T01:23:01.809Z,84.13
2023-01-29T01:24:01.781Z,84.22
2023-01-29T01:25:01.746Z,84.07
2023-01-29T01:26:01.745Z,84.15
2023-01-29T01:27:01.730Z,84.12
2023-01-29T01:28:34.599Z,84.20
2023-01-29T01:29:35.166Z,84.23
2023-01-29T01:30:35.164Z,84.32
2023-01-29T01:31:35.201Z,84.12
2023-01-29T01:32:35.258Z,84.05
2023-01-29T01:33:35.145Z,84.13
2023-01-29T01:34:35.167Z,84.25
2023-01-29T01:35:35.205Z,84.13
2023-01-29T01:36:35.107Z,84.22
2023-01-29T01:37:35.082Z,84.42
2023-01-29T01:38:35.153Z,84.54
2023-01-29T01:39:35.068Z,84.38
2023-01-29T01:40:35.121Z,84.34
2023-01-29T01:41:35.179Z,84.31
2023-01-29T01:42:35.050Z,84.42
2023-01-29T01:43:35.046Z,84.36
2023-01-29T01:44:35.099Z,84.36
2023-01-29T01:45:35.036Z,84.20
2023-01-29T01:46:35.026Z,84.22
2023-01-29T01:47:35.140Z,84.40
2023-01-29T01:48:34.999Z,84.22
2023-01-29T01:49:35.056Z,84.15
2023-01-29T01:50:35.071Z,84.23
2023-01-29T01:51:35.060Z,84.37
2023-01-29T01:52:35.011Z,84.27
2023-01-29T01:53:34.932Z,84.33
2023-01-29T01:54:34.928Z,84.30
2023-01-29T01:55:34.961Z,84.31
2023-01-29T01:56:34.985Z,84.30
2023-01-29T01:57:34.911Z,84.22
2023-01-29T01:58:34.938Z,84.17
2023-01-29T01:59:35.004Z,84.20
2023-01-29T02:01:59.521Z,84.56
2023-01-29T02:02:59.963Z,84.52
2023-01-29T02:03:58.930Z,84.61
2023-01-29T02:04:58.897Z,84.67
2023-01-29T02:05:58.903Z,84.78
2023-01-29T02:06:58.898Z,84.77
2023-01-29T02:07:58.868Z,84.74
2023-01-29T02:08:58.852Z,84.77
2023-01-29T02:09:58.875Z,84.78
2023-01-29T02:10:58.841Z,84.85
2023-01-29T02:11:58.850Z,84.89
2023-01-29T02:12:58.858Z,84.94
2023-01-29T02:13:58.812Z,84.95
2023-01-29T02:14:58.808Z,84.90
2023-01-29T02:15:58.797Z,84.84
2023-01-29T02:16:58.817Z,84.67
2023-01-29T02:17:58.780Z,84.61
2023-01-29T02:18:58.758Z,84.50
2023-01-29T02:19:58.792Z,84.40
2023-01-29T02:20:58.741Z,84.42
2023-01-29T02:21:58.731Z,84.45
2023-01-29T02:22:58.744Z,84.63
2023-01-29T02:23:58.758Z,84.74
2023-01-29T02:24:58.757Z,84.77
2023-01-29T02:25:58.705Z,84.77
2023-01-29T02:26:58.697Z,84.71
2023-01-29T02:27:58.709Z,84.70
2023-01-29T02:28:58.676Z,84.81
2023-01-29T02:29:58.670Z,84.78
2023-01-29T02:30:58.662Z,84.81
2023-01-29T02:31:58.671Z,84.87
2023-01-29T02:32:58.862Z,84.91
2023-01-29T02:33:58.625Z,84.94
2023-01-29T02:34:58.624Z,85.09
2023-01-29T02:35:58.620Z,85.21
2023-01-29T02:36:58.589Z,85.21
2023-01-29T02:37:58.599Z,85.17
2023-01-29T02:38:58.592Z,85.09
2023-01-29T02:39:58.568Z,85.13
2023-01-29T02:40:58.597Z,85.19
2023-01-29T02:41:58.563Z,85.14
2023-01-29T02:42:58.635Z,85.12
2023-01-29T02:43:58.543Z,85.14
2023-01-29T02:44:58.521Z,85.19
2023-01-29T02:45:58.634Z,85.18
2023-01-29T02:46:58.544Z,85.15
2023-01-29T02:47:58.515Z,85.16
2023-01-29T02:48:58.503Z,85.30
2023-01-29T02:49:58.464Z,85.42
2023-01-29T02:50:58.463Z,85.53
2023-01-29T02:51:58.474Z,85.58
2023-01-29T02:52:58.442Z,85.51
2023-01-29T02:53:58.440Z,85.47
2023-01-29T02:54:58.461Z,85.45
2023-01-29T02:55:58.417Z,85.33
2023-01-29T02:56:58.414Z,85.28
2023-01-29T02:57:58.407Z,85.27
2023-01-29T02:58:58.417Z,85.10
2023-01-29T02:59:58.407Z,85.14
2023-01-29T03:00:58.460Z,85.28
2023-01-29T03:01:58.394Z,85.42
2023-01-29T03:02:58.410Z,85.47
2023-01-29T03:03:58.341Z,85.42
2023-01-29T03:04:58.366Z,85.42
2023-01-29T03:05:58.329Z,85.49
2023-01-29T03:06:58.393Z,85.65
2023-01-29T03:07:58.433Z,85.80
2023-01-29T03:08:58.304Z,85.87
2023-01-29T03:09:58.288Z,85.86
2023-01-29T03:10:58.302Z,85.82
2023-01-29T03:11:58.270Z,85.86
2023-01-29T03:12:58.263Z,85.82
2023-01-29T03:13:58.235Z,85.73
2023-01-29T03:14:58.356Z,85.64
2023-01-29T03:15:58.232Z,85.58
2023-01-29T03:16:58.238Z,85.57
2023-01-29T03:17:58.400Z,85.55
2023-01-29T03:18:58.195Z,85.63
2023-01-29T03:19:58.212Z,85.67
2023-01-29T03:20:58.331Z,85.69
2023-01-29T03:21:58.159Z,85.77
2023-01-29T03:22:58.165Z,85.89
2023-01-29T03:23:58.370Z,85.95
2023-01-29T03:24:58.131Z,86.01
2023-01-29T03:25:58.132Z,86.01
2023-01-29T03:26:58.109Z,86.03
2023-01-29T03:27:58.110Z,86.03
2023-01-29T03:28:58.109Z,85.99
2023-01-29T03:29:58.119Z,85.97
2023-01-29T03:30:58.101Z,85.95
2023-01-29T03:31:58.147Z,85.95
2023-01-29T03:32:58.105Z,85.93
2023-01-29T03:33:58.053Z,85.82
2023-01-29T03:34:58.098Z,85.79
2023-01-29T03:35:58.049Z,85.87
2023-01-29T03:36:58.029Z,85.96
2023-01-29T03:37:58.092Z,86.03
2023-01-29T03:38:57.999Z,86.08
2023-01-29T03:39:58.024Z,86.04
2023-01-29T03:40:57.995Z,85.96
2023-01-29T03:41:57.987Z,85.77
2023-01-29T03:42:58.012Z,85.79
2023-01-29T03:43:57.978Z,85.81
2023-01-29T03:44:57.940Z,85.57
2023-01-29T03:45:57.958Z,85.49
2023-01-29T03:46:57.922Z,85.47
2023-01-29T03:47:57.935Z,85.58
2023-01-29T03:48:57.972Z,85.68
2023-01-29T03:49:57.920Z,85.74
2023-01-29T03:50:57.893Z,85.80
2023-01-29T03:51:57.897Z,85.87
2023-01-29T03:52:57.880Z,85.89
2023-01-29T03:53:57.872Z,85.85
2023-01-29T03:54:57.872Z,85.85
2023-01-29T03:55:57.905Z,85.88
2023-01-29T03:56:57.860Z,85.93
2023-01-29T03:57:57.824Z,86.05
2023-01-29T03:58:57.837Z,86.16
2023-01-29T03:59:57.817Z,86.22
2023-01-29T04:00:57.835Z,86.31
2023-01-29T04:01:57.800Z,86.42
2023-01-29T04:02:58.044Z,86.50
2023-01-29T04:03:57.899Z,86.53
2023-01-29T04:04:57.790Z,86.57
2023-01-29T04:05:57.766Z,86.62
2023-01-29T04:06:57.741Z,86.64
2023-01-29T04:07:57.724Z,86.66
2023-01-29T04:08:57.782Z,86.67
2023-01-29T04:09:57.734Z,86.69
2023-01-29T04:10:57.701Z,86.72
2023-01-29T04:11:57.690Z,86.79
2023-01-29T04:12:57.704Z,86.79
2023-01-29T04:13:57.719Z,86.81
2023-01-29T04:14:57.665Z,86.88
2023-01-29T04:15:57.684Z,86.90
2023-01-29T04:16:57.651Z,86.92
2023-01-29T04:17:57.635Z,86.92
2023-01-29T04:18:57.672Z,86.90
2023-01-29T04:19:57.656Z,86.88
2023-01-29T04:20:57.611Z,86.86
2023-01-29T04:21:57.646Z,86.84
2023-01-29T04:22:57.584Z,86.84
2023-01-29T04:23:57.608Z,86.85
2023-01-29T04:24:57.584Z,86.85
2023-01-29T04:25:57.574Z,86.89
2023-01-29T04:26:57.566Z,86.93
2023-01-29T04:27:57.607Z,86.99
2023-01-29T04:28:58.418Z,87.04
2023-01-29T04:29:57.521Z,87.05
2023-01-29T04:30:57.646Z,87.06
2023-01-29T04:31:57.613Z,87.06
2023-01-29T04:32:57.551Z,87.07
2023-01-29T04:33:57.488Z,87.05
2023-01-29T04:34:57.491Z,87.04
2023-01-29T04:35:57.493Z,87.02
2023-01-29T04:36:57.481Z,87.00
2023-01-29T04:37:57.465Z,87.00
2023-01-29T04:38:57.454Z,87.04
2023-01-29T04:39:57.496Z,87.09
2023-01-29T04:40:57.441Z,87.25
2023-01-29T04:41:57.426Z,87.41
2023-01-29T04:42:57.393Z,87.49
2023-01-29T04:43:57.417Z,87.53
2023-01-29T04:44:57.367Z,87.55
2023-01-29T04:45:57.408Z,87.62
2023-01-29T04:46:57.360Z,87.73
2023-01-29T04:47:57.368Z,87.85
2023-01-29T04:48:57.354Z,87.92
2023-01-29T04:49:57.343Z,87.56
2023-01-29T04:50:57.339Z,86.56
2023-01-29T04:51:57.342Z,85.37
2023-01-29T04:52:57.353Z,84.20
2023-01-29T04:53:57.306Z,83.59
2023-01-29T04:54:57.378Z,82.92
2023-01-29T04:55:57.275Z,82.64
2023-01-29T04:56:57.266Z,82.01
2023-01-29T04:57:57.274Z,82.20
2023-01-29T04:58:57.446Z,82.68
2023-01-29T04:59:57.313Z,83.22
2023-01-29T05:00:57.219Z,83.85
2023-01-29T05:01:57.431Z,84.38
2023-01-29T05:02:57.227Z,84.80
2023-01-29T05:03:57.209Z,85.13
2023-01-29T05:04:57.382Z,85.38
2023-01-29T05:05:57.195Z,85.70
2023-01-29T05:06:57.177Z,85.93
2023-01-29T05:07:57.263Z,86.13
2023-01-29T05:08:57.200Z,86.12
2023-01-29T05:09:57.145Z,85.89
2023-01-29T05:10:57.147Z,85.51
2023-01-29T05:11:57.119Z,84.82
2023-01-29T05:12:57.125Z,84.35
2023-01-29T05:13:57.098Z,84.38
2023-01-29T05:14:57.097Z,84.59
2023-01-29T05:15:57.283Z,84.81
2023-01-29T05:16:57.085Z,85.17
2023-01-29T05:17:57.072Z,85.50
2023-01-29T05:18:57.082Z,85.79
2023-01-29T05:19:57.044Z,86.01
2023-01-29T05:20:57.051Z,86.21
2023-01-29T05:21:57.071Z,86.39
2023-01-29T05:22:57.025Z,86.52
2023-01-29T05:23:57.069Z,86.58
2023-01-29T05:24:57.025Z,86.55
2023-01-29T05:25:57.002Z,86.48
2023-01-29T05:26:56.974Z,86.45
2023-01-29T05:27:56.980Z,86.47
2023-01-29T05:28:57.005Z,86.53
2023-01-29T05:29:56.941Z,86.58
2023-01-29T05:30:57.014Z,86.60
2023-01-29T05:31:56.944Z,86.65
2023-01-29T05:32:56.947Z,86.68
2023-01-29T05:33:56.915Z,86.77
2023-01-29T05:34:56.967Z,86.70
2023-01-29T05:35:56.936Z,86.63
2023-01-29T05:36:56.898Z,86.57
2023-01-29T05:37:56.885Z,86.36
2023-01-29T05:38:56.933Z,86.04
2023-01-29T05:39:56.904Z,85.70
2023-01-29T05:40:56.849Z,85.76
2023-01-29T05:41:56.867Z,85.89
2023-01-29T05:42:56.832Z,85.97
2023-01-29T05:43:56.810Z,85.56
2023-01-29T05:44:57.310Z,84.70
2023-01-29T05:45:56.807Z,84.23
2023-01-29T05:46:56.910Z,84.11
2023-01-29T05:47:56.806Z,84.01
2023-01-29T05:48:56.766Z,83.83
2023-01-29T05:49:56.850Z,83.72
2023-01-29T05:50:56.779Z,83.53
2023-01-29T05:51:56.791Z,83.37
2023-01-29T05:52:56.722Z,83.24
2023-01-29T05:53:56.768Z,83.32
2023-01-29T05:54:56.712Z,83.32
2023-01-29T05:55:56.705Z,83.23
2023-01-29T05:56:56.711Z,83.39
2023-01-29T05:57:56.677Z,83.52
2023-01-29T05:58:56.666Z,83.54
2023-01-29T05:59:56.688Z,83.37
2023-01-29T06:00:56.671Z,83.63
2023-01-29T06:01:56.739Z,83.83
2023-01-29T06:02:56.728Z,83.83
2023-01-29T06:03:56.651Z,83.58
2023-01-29T06:04:56.637Z,82.85
2023-01-29T06:05:56.614Z,82.57
2023-01-29T06:06:56.604Z,82.81
2023-01-29T06:07:56.636Z,83.05
2023-01-29T06:08:56.595Z,83.07
2023-01-29T06:09:56.586Z,83.13
2023-01-29T06:10:56.614Z,83.05
2023-01-29T06:11:56.548Z,83.00
2023-01-29T06:12:56.539Z,82.98
2023-01-29T06:13:56.611Z,82.89
2023-01-29T06:14:56.530Z,82.98
2023-01-29T06:15:56.590Z,83.06
2023-01-29T06:16:56.500Z,82.93
2023-01-29T06:17:56.511Z,82.89
2023-01-29T06:18:56.488Z,83.12
2023-01-29T06:19:56.498Z,82.42
2023-01-29T06:20:56.470Z,81.78
2023-01-29T06:21:56.447Z,81.82
2023-01-29T06:22:56.460Z,82.03
2023-01-29T06:23:56.513Z,82.37
2023-01-29T06:24:56.456Z,82.66
2023-01-29T06:25:56.365Z,82.86
2023-01-29T06:26:56.478Z,83.09
2023-01-29T06:27:59.313Z,83.35
2023-01-29T06:28:56.399Z,83.63
2023-01-29T06:29:56.331Z,83.97
2023-01-29T06:30:56.377Z,84.28
2023-01-29T06:31:56.438Z,84.50
2023-01-29T06:32:56.297Z,84.73
2023-01-29T06:33:56.429Z,84.90
2023-01-29T06:34:56.308Z,85.00
2023-01-29T06:35:56.264Z,85.10
2023-01-29T06:36:56.337Z,84.93
2023-01-29T06:37:56.243Z,84.27
2023-01-29T06:38:56.251Z,83.80
2023-01-29T06:39:56.358Z,83.46
2023-01-29T06:40:56.248Z,83.09
2023-01-29T06:41:56.227Z,82.92
2023-01-29T06:42:56.356Z,82.82
2023-01-29T06:43:56.196Z,82.93
2023-01-29T06:44:56.214Z,82.95
2023-01-29T06:45:56.206Z,83.03
2023-01-29T06:46:56.348Z,83.06
2023-01-29T06:47:56.156Z,82.87
2023-01-29T06:48:56.138Z,82.65
2023-01-29T06:49:56.199Z,82.65
2023-01-29T06:50:56.144Z,82.90
2023-01-29T06:51:56.110Z,82.97
2023-01-29T06:52:56.159Z,83.08
2023-01-29T06:53:56.123Z,83.22
2023-01-29T06:54:56.096Z,83.29
2023-01-29T06:55:56.280Z,83.06
2023-01-29T06:56:56.068Z,82.90
2023-01-29T06:57:56.048Z,82.83
2023-01-29T06:58:56.443Z,82.74
2023-01-29T06:59:56.066Z,82.59
2023-01-29T07:00:56.146Z,82.45
2023-01-29T07:01:56.065Z,82.36
2023-01-29T07:02:56.061Z,82.35
2023-01-29T07:03:56.008Z,82.36
2023-01-29T07:04:56.014Z,82.49
2023-01-29T07:05:56.040Z,82.54
2023-01-29T07:06:55.986Z,82.58
2023-01-29T07:07:55.955Z,82.63
2023-01-29T07:08:56.109Z,82.57
2023-01-29T07:09:55.968Z,82.47
2023-01-29T07:10:55.932Z,82.35
2023-01-29T07:11:55.922Z,82.55
2023-01-29T07:12:55.930Z,82.68
2023-01-29T07:13:55.897Z,82.65
2023-01-29T07:14:55.955Z,82.67
2023-01-29T07:15:55.950Z,82.71
2023-01-29T07:16:55.889Z,82.77
2023-01-29T07:17:55.881Z,82.68
2023-01-29T07:18:55.861Z,82.65
2023-01-29T07:19:55.880Z,82.58
2023-01-29T07:20:56.180Z,82.55
2023-01-29T07:21:56.433Z,82.45
2023-01-29T07:22:55.826Z,82.46
2023-01-29T07:23:55.935Z,82.54
2023-01-29T07:24:55.900Z,82.51
2023-01-29T07:25:55.796Z,82.07
2023-01-29T07:26:55.782Z,82.01
2023-01-29T07:27:55.794Z,81.75
2023-01-29T07:28:55.781Z,81.77
2023-01-29T07:29:55.755Z,82.08
2023-01-29T07:30:55.974Z,82.22
2023-01-29T07:31:55.843Z,82.61
2023-01-29T07:32:55.738Z,82.64
2023-01-29T07:33:55.732Z,82.85
2023-01-29T07:34:55.728Z,82.93
2023-01-29T07:35:55.691Z,83.04
2023-01-29T07:36:55.890Z,83.14
2023-01-29T07:37:55.826Z,83.15
2023-01-29T07:38:55.665Z,82.91
2023-01-29T07:39:55.674Z,82.94
2023-01-29T07:40:55.660Z,82.76
2023-01-29T07:41:55.630Z,82.58
2023-01-29T07:42:55.660Z,82.52
2023-01-29T07:43:55.735Z,82.61
2023-01-29T07:44:55.625Z,82.66
2023-01-29T07:45:55.626Z,82.60
2023-01-29T07:46:55.610Z,82.62
2023-01-29T07:47:55.958Z,82.62
2023-01-29T07:48:56.710Z,82.62
2023-01-29T07:49:56.013Z,82.50
2023-01-29T07:50:55.640Z,82.49
2023-01-29T07:51:55.544Z,82.43
2023-01-29T07:52:55.547Z,82.55
2023-01-29T07:53:55.530Z,82.63
2023-01-29T07:54:55.510Z,82.80
2023-01-29T07:55:55.511Z,82.82
2023-01-29T07:56:55.495Z,82.39
2023-01-29T07:57:55.518Z,82.12
2023-01-29T07:58:55.483Z,81.95
2023-01-29T07:59:55.464Z,81.87
2023-01-29T08:00:55.494Z,81.83
2023-01-29T08:01:55.465Z,82.01
2023-01-29T08:02:55.465Z,82.19
2023-01-29T08:03:55.445Z,82.31
2023-01-29T08:04:55.412Z,82.35
2023-01-29T08:05:55.429Z,82.16
2023-01-29T08:06:55.539Z,82.16
2023-01-29T08:08:06.098Z,82.27
2023-01-29T08:08:55.404Z,82.53
2023-01-29T08:09:55.367Z,82.73
2023-01-29T08:10:55.363Z,82.59
2023-01-29T08:11:55.393Z,82.40
2023-01-29T08:12:55.369Z,82.33
2023-01-29T08:13:55.335Z,82.48
2023-01-29T08:14:55.339Z,82.62
2023-01-29T08:15:55.308Z,82.46
2023-01-29T08:16:55.329Z,81.77
2023-01-29T08:17:58.038Z,81.75
2023-01-29T08:18:55.296Z,81.53
2023-01-29T08:19:55.271Z,81.43
2023-01-29T08:20:55.274Z,81.47
2023-01-29T08:21:55.366Z,81.56
2023-01-29T08:22:55.243Z,81.57
2023-01-29T08:23:55.301Z,81.80
2023-01-29T08:25:06.487Z,81.73
2023-01-29T08:25:55.244Z,81.61
2023-01-29T08:26:55.210Z,81.51
2023-01-29T08:27:55.208Z,81.21
2023-01-29T08:28:55.203Z,81.24
2023-01-29T08:29:55.181Z,81.40
2023-01-29T08:30:55.286Z,81.62
2023-01-29T08:31:55.435Z,81.83
2023-01-29T08:32:55.168Z,81.52
2023-01-29T08:33:55.160Z,81.19
2023-01-29T08:34:55.129Z,81.22
2023-01-29T08:35:55.145Z,81.35
2023-01-29T08:36:55.112Z,81.32
2023-01-29T08:37:55.154Z,81.01
2023-01-29T08:38:55.095Z,81.17
2023-01-29T08:39:55.095Z,81.30
2023-01-29T08:40:55.103Z,81.23
2023-01-29T08:41:55.078Z,81.21
2023-01-29T08:42:55.060Z,81.40
2023-01-29T08:43:55.072Z,81.40
2023-01-29T08:44:55.042Z,81.53
2023-01-29T08:45:55.091Z,81.50
2023-01-29T08:46:55.159Z,81.67
2023-01-29T08:47:54.999Z,81.63
2023-01-29T08:48:55.062Z,81.47
2023-01-29T08:49:54.999Z,81.54
2023-01-29T08:50:54.978Z,81.46
2023-01-29T08:51:55.003Z,81.47
2023-01-29T08:52:55.004Z,81.51
2023-01-29T08:53:54.955Z,81.89
2023-01-29T08:54:54.945Z,82.04
2023-01-29T08:55:54.984Z,81.95
2023-01-29T08:56:54.947Z,81.81
2023-01-29T08:57:55.838Z,81.60
2023-01-29T08:58:54.900Z,81.29
2023-01-29T08:59:55.753Z,81.29
2023-01-29T09:00:54.952Z,81.41
2023-01-29T09:01:54.878Z,81.14
2023-01-29T09:02:54.874Z,81.11
2023-01-29T09:03:54.861Z,81.29
2023-01-29T09:04:54.844Z,81.10
2023-01-29T09:05:55.142Z,81.06
2023-01-29T09:06:54.840Z,81.30
2023-01-29T09:07:54.844Z,81.60
2023-01-29T09:08:54.968Z,81.72
2023-01-29T09:09:55.103Z,81.51
2023-01-29T09:10:54.806Z,81.49
2023-01-29T09:11:54.829Z,81.45
2023-01-29T09:12:54.803Z,81.28
2023-01-29T09:13:55.036Z,81.61
2023-01-29T09:14:54.756Z,81.98
2023-01-29T09:15:54.745Z,81.84
2023-01-29T09:16:54.820Z,81.62
2023-01-29T09:17:55.039Z,81.48
2023-01-29T09:18:54.734Z,81.50
2023-01-29T09:19:54.733Z,81.30
2023-01-29T09:20:55.051Z,81.28
2023-01-29T09:21:54.833Z,81.57
2023-01-29T09:22:54.864Z,81.34
2023-01-29T09:23:54.808Z,81.06
2023-01-29T09:24:53.663Z,80.84
2023-01-29T09:25:54.646Z,80.45
2023-01-29T09:26:54.645Z,80.56
2023-01-29T09:27:54.647Z,80.82
2023-01-29T09:28:54.620Z,80.91
2023-01-29T09:29:54.618Z,80.90
2023-01-29T09:30:54.745Z,80.75
2023-01-29T09:31:55.499Z,80.71
2023-01-29T09:32:55.134Z,80.76
2023-01-29T09:33:54.579Z,80.81
2023-01-29T09:34:54.570Z,80.51
2023-01-29T09:35:56.838Z,80.49
2023-01-29T09:36:54.651Z,80.51
2023-01-29T09:37:54.581Z,80.55
2023-01-29T09:38:54.522Z,80.51
2023-01-29T09:39:54.499Z,80.50
2023-01-29T09:40:54.510Z,80.63
2023-01-29T09:41:54.561Z,80.40
2023-01-29T09:42:54.496Z,79.97
2023-01-29T09:43:54.462Z,80.11
2023-01-29T09:44:56.695Z,80.10
2023-01-29T09:45:54.569Z,80.30
2023-01-29T09:46:54.570Z,80.54
2023-01-29T09:47:54.462Z,80.78
2023-01-29T09:48:54.751Z,80.47
2023-01-29T09:49:54.449Z,80.36
2023-01-29T09:50:54.491Z,80.28
2023-01-29T09:51:54.645Z,80.44
2023-01-29T09:52:54.602Z,80.54
2023-01-29T09:53:54.427Z,79.97
2023-01-29T09:54:54.383Z,79.81
2023-01-29T09:55:54.383Z,79.98
2023-01-29T09:56:55.337Z,80.17
2023-01-29T09:57:54.339Z,79.96
2023-01-29T09:58:55.721Z,79.72
2023-01-29T09:59:54.319Z,79.28
2023-01-29T10:00:54.317Z,79.44
2023-01-29T10:01:54.535Z,79.56
2023-01-29T10:02:54.583Z,79.52
2023-01-29T10:03:54.336Z,79.73
2023-01-29T10:04:54.342Z,79.81
2023-01-29T10:05:55.107Z,79.82
2023-01-29T10:06:55.255Z,79.57
2023-01-29T10:07:54.528Z,79.23
2023-01-29T10:08:55.036Z,79.12
2023-01-29T10:09:54.273Z,78.66
2023-01-29T10:10:54.254Z,79.18
2023-01-29T10:11:56.311Z,79.30
2023-01-29T10:12:55.057Z,78.63
2023-01-29T10:13:54.223Z,78.13
2023-01-29T10:14:54.537Z,78.04
2023-01-29T10:15:54.154Z,78.13
2023-01-29T10:16:54.172Z,78.23
2023-01-29T10:17:54.519Z,77.93
2023-01-29T10:18:54.138Z,77.79
2023-01-29T10:19:54.141Z,78.30
2023-01-29T10:20:55.664Z,78.32
2023-01-29T10:21:55.754Z,78.09
2023-01-29T10:22:54.231Z,78.10
2023-01-29T10:23:54.990Z,77.93
2023-01-29T10:24:54.082Z,78.40
2023-01-29T10:25:54.053Z,78.60
2023-01-29T10:26:54.074Z,77.86
2023-01-29T10:27:54.072Z,77.86
2023-01-29T10:28:54.045Z,77.66
2023-01-29T10:29:54.019Z,78.17
2023-01-29T10:30:56.372Z,78.06
2023-01-29T10:31:54.182Z,78.15
2023-01-29T10:32:53.993Z,78.36
2023-01-29T10:34:02.148Z,78.58
2023-01-29T10:34:53.990Z,79.17
2023-01-29T10:35:55.801Z,78.88
2023-01-29T10:36:53.968Z,79.11
2023-01-29T10:37:53.952Z,79.00
2023-01-29T10:38:53.971Z,78.85
2023-01-29T10:39:53.925Z,78.68
2023-01-29T10:40:53.953Z,78.45
2023-01-29T10:41:54.095Z,78.60
2023-01-29T10:42:53.905Z,78.39
2023-01-29T10:43:53.968Z,78.11
2023-01-29T10:44:53.888Z,78.57
2023-01-29T10:45:53.877Z,78.47
2023-01-29T10:46:53.904Z,78.25
2023-01-29T10:47:53.899Z,77.89
2023-01-29T10:48:54.098Z,78.23
2023-01-29T10:49:53.828Z,78.06
2023-01-29T10:50:53.850Z,77.23
2023-01-29T10:51:53.882Z,76.98
2023-01-29T10:52:55.933Z,77.45
2023-01-29T10:53:53.894Z,76.95
2023-01-29T10:54:54.479Z,76.37
2023-01-29T10:55:53.791Z,76.47
2023-01-29T10:56:54.567Z,77.22
2023-01-29T10:57:53.763Z,77.46
2023-01-29T10:58:54.344Z,77.06
2023-01-29T10:59:53.865Z,76.70
2023-01-29T11:00:54.199Z,76.31
2023-01-29T11:01:53.778Z,76.06
2023-01-29T11:02:53.967Z,76.22
2023-01-29T11:03:53.689Z,76.01
2023-01-29T11:04:53.716Z,76.36
2023-01-29T11:05:53.689Z,76.61
2023-01-29T11:06:53.712Z,76.51
2023-01-29T11:07:53.999Z,76.98
2023-01-29T11:08:53.706Z,76.91
2023-01-29T11:09:53.652Z,77.04
2023-01-29T11:10:53.618Z,77.33
2023-01-29T11:11:53.636Z,77.02
2023-01-29T11:12:53.613Z,77.17
2023-01-29T11:13:53.819Z,77.36
2023-01-29T11:14:53.647Z,77.05
2023-01-29T11:15:54.233Z,76.37
2023-01-29T11:16:54.545Z,76.28
2023-01-29T11:17:53.973Z,76.46
2023-01-29T11:18:53.864Z,76.49
2023-01-29T11:19:53.558Z,76.36
2023-01-29T11:20:53.596Z,77.03
2023-01-29T11:21:53.657Z,76.91
2023-01-29T11:22:53.503Z,76.99
2023-01-29T11:23:53.533Z,76.92
2023-01-29T11:24:54.363Z,77.05
2023-01-29T11:25:53.767Z,76.92
2023-01-29T11:26:53.536Z,76.47
2023-01-29T11:27:53.812Z,76.68
2023-01-29T11:28:53.693Z,76.59
2023-01-29T11:29:53.474Z,76.54
2023-01-29T11:30:53.676Z,76.24
2023-01-29T11:31:53.574Z,76.37
2023-01-29T11:32:53.488Z,76.10
2023-01-29T11:33:53.395Z,76.07
2023-01-29T11:34:53.396Z,75.65
2023-01-29T11:35:53.384Z,75.57
2023-01-29T11:36:53.435Z,75.85
2023-01-29T11:37:53.561Z,75.48
2023-01-29T11:38:53.364Z,75.16
2023-01-29T11:39:53.341Z,75.54
2023-01-29T11:40:53.718Z,75.89
2023-01-29T11:41:53.373Z,76.22
2023-01-29T11:42:53.400Z,76.29
2023-01-29T11:43:53.309Z,76.38
2023-01-29T11:44:54.734Z,75.59
2023-01-29T11:45:54.350Z,75.53
2023-01-29T11:46:53.502Z,75.99
2023-01-29T11:47:53.608Z,76.14
2023-01-29T11:48:54.811Z,75.37
2023-01-29T11:49:53.284Z,75.87
2023-01-29T11:50:53.516Z,76.24
2023-01-29T11:51:53.221Z,76.63
2023-01-29T11:52:53.210Z,77.23
2023-01-29T11:53:53.313Z,76.15
2023-01-29T11:54:53.283Z,75.02
2023-01-29T11:55:53.881Z,74.75
2023-01-29T11:56:53.261Z,75.10
2023-01-29T11:57:55.097Z,74.89
2023-01-29T11:58:53.456Z,74.63
2023-01-29T11:59:53.159Z,74.87
2023-01-29T12:00:53.344Z,75.31
2023-01-29T12:01:54.003Z,75.11
2023-01-29T12:02:53.896Z,74.31
2023-01-29T12:03:53.341Z,73.72
2023-01-29T12:04:53.208Z,73.92
2023-01-29T12:05:53.419Z,74.51
2023-01-29T12:06:53.321Z,74.38
2023-01-29T12:07:53.407Z,74.90
2023-01-29T12:08:53.132Z,75.15
2023-01-29T12:09:53.987Z,75.63
2023-01-29T12:10:54.160Z,75.69
2023-01-29T12:11:53.036Z,75.83
2023-01-29T12:12:53.208Z,76.43
2023-01-29T12:13:53.037Z,76.13
2023-01-29T12:14:52.998Z,76.11
2023-01-29T12:15:54.813Z,75.20
2023-01-29T12:16:53.024Z,75.38
2023-01-29T12:17:52.965Z,76.14
2023-01-29T12:18:53.585Z,76.24
2023-01-29T12:19:53.931Z,76.19
2023-01-29T12:20:52.979Z,76.31
2023-01-29T12:21:53.007Z,75.19
2023-01-29T12:22:52.909Z,75.38
2023-01-29T12:23:54.362Z,75.72
2023-01-29T12:24:53.314Z,75.37
2023-01-29T12:25:52.888Z,74.79
2023-01-29T12:26:52.886Z,74.34
2023-01-29T12:27:54.190Z,75.06
2023-01-29T12:28:52.854Z,76.05
2023-01-29T12:29:52.875Z,75.88
2023-01-29T12:30:53.981Z,75.10
2023-01-29T12:31:54.013Z,75.93
2023-01-29T12:32:52.820Z,76.00
2023-01-29T12:33:52.826Z,75.95
2023-01-29T12:34:53.412Z,76.00
2023-01-29T12:35:52.807Z,76.50
2023-01-29T12:36:53.508Z,76.48
2023-01-29T12:37:52.937Z,76.77
2023-01-29T12:38:53.134Z,76.40
2023-01-29T12:39:52.832Z,76.27
2023-01-29T12:40:53.358Z,76.43
2023-01-29T12:41:52.734Z,76.21
2023-01-29T12:42:52.730Z,75.97
2023-01-29T12:43:52.785Z,76.36
2023-01-29T12:44:52.709Z,76.03
2023-01-29T12:45:53.456Z,75.88
2023-01-29T12:46:53.455Z,75.49
2023-01-29T12:47:54.028Z,75.62
2023-01-29T12:48:52.689Z,76.46
2023-01-29T12:49:52.676Z,76.22
2023-01-29T12:50:52.681Z,76.38
2023-01-29T12:51:52.644Z,76.78
2023-01-29T12:52:52.633Z,76.47
2023-01-29T12:53:53.101Z,76.36